createdAt,value
2022-08-30T00:00:05.866Z,94.80
2022-08-30T00:00:38.055Z,95.10
2022-08-30T00:01:03.452Z,95.20
2022-08-30T00:01:21.540Z,95.20
2022-08-30T00:01:33.401Z,95.40
2022-08-30T00:01:45.089Z,95.60
2022-08-30T00:01:57.206Z,95.30
2022-08-30T00:02:08.960Z,95.10
2022-08-30T00:02:20.878Z,95.10
2022-08-30T00:02:33.732Z,95.40
2022-08-30T00:02:45.586Z,95.20
2022-08-30T00:02:57.942Z,95.20
2022-08-30T00:03:10.885Z,95.40
2022-08-30T00:03:22.969Z,95.40
2022-08-30T00:03:37.413Z,95.30
2022-08-30T00:03:49.415Z,95.50
2022-08-30T00:04:01.478Z,95.40
2022-08-30T00:04:13.188Z,95.40
2022-08-30T00:04:26.337Z,95.20
2022-08-30T00:04:38.038Z,95.30
2022-08-30T00:04:49.793Z,95.30
2022-08-30T00:05:02.301Z,95.20
2022-08-30T00:05:16.791Z,95.40
2022-08-30T00:05:29.534Z,95.50
2022-08-30T00:05:42.112Z,95.40
2022-08-30T00:05:54.492Z,95.20
2022-08-30T00:06:09.553Z,95.40
2022-08-30T00:06:21.400Z,95.50
2022-08-30T00:06:33.129Z,95.50
2022-08-30T00:06:44.891Z,95.60
2022-08-30T00:06:56.569Z,95.40
2022-08-30T00:07:08.301Z,95.60
2022-08-30T00:07:20.013Z,95.50
2022-08-30T00:07:31.757Z,95.70
2022-08-30T00:07:43.468Z,95.70
2022-08-30T00:07:55.204Z,95.50
2022-08-30T00:08:06.994Z,95.60
2022-08-30T00:08:18.691Z,95.60
2022-08-30T00:08:30.457Z,95.70
2022-08-30T00:08:42.531Z,95.70
2022-08-30T00:08:54.425Z,95.90
2022-08-30T00:09:06.096Z,95.60
2022-08-30T00:09:17.818Z,95.80
2022-08-30T00:09:29.498Z,95.90
2022-08-30T00:09:41.267Z,95.90
2022-08-30T00:09:52.975Z,96.00
2022-08-30T00:10:05.282Z,96.10
2022-08-30T00:10:17.408Z,96.00
2022-08-30T00:10:29.359Z,96.10
2022-08-30T00:10:43.486Z,96.20
2022-08-30T00:10:55.437Z,96.00
2022-08-30T00:11:10.026Z,96.00
2022-08-30T00:11:23.996Z,96.10
2022-08-30T00:11:35.846Z,96.10
2022-08-30T00:11:47.705Z,96.20
2022-08-30T00:11:59.695Z,96.20
2022-08-30T00:12:11.416Z,96.20
2022-08-30T00:12:23.147Z,96.50
2022-08-30T00:12:36.061Z,96.00
2022-08-30T00:12:49.070Z,96.20
2022-08-30T00:13:00.945Z,96.40
2022-08-30T00:13:13.512Z,96.30
2022-08-30T00:13:25.311Z,96.30
2022-08-30T00:13:37.769Z,96.40
2022-08-30T00:13:50.645Z,96.40
2022-08-30T00:14:02.649Z,96.50
2022-08-30T00:14:14.550Z,96.50
2022-08-30T00:14:27.516Z,96.50
2022-08-30T00:14:39.300Z,96.40
2022-08-30T00:14:50.980Z,96.50
2022-08-30T00:15:04.434Z,96.50
2022-08-30T00:15:16.229Z,96.50
2022-08-30T00:15:29.245Z,96.50
2022-08-30T00:15:41.592Z,96.60
2022-08-30T00:15:53.730Z,96.60
2022-08-30T00:16:06.849Z,96.60
2022-08-30T00:16:19.918Z,96.60
2022-08-30T00:16:31.713Z,96.50
2022-08-30T00:16:43.464Z,96.60
2022-08-30T00:16:55.151Z,96.60
2022-08-30T00:17:06.833Z,96.60
2022-08-30T00:17:19.330Z,96.50
2022-08-30T00:17:31.080Z,96.40
2022-08-30T00:17:43.780Z,96.20
2022-08-30T00:17:55.593Z,96.80
2022-08-30T00:18:07.513Z,96.60
2022-08-30T00:18:19.549Z,96.70
2022-08-30T00:18:31.332Z,96.70
2022-08-30T00:18:43.239Z,96.80
2022-08-30T00:18:55.985Z,96.70
2022-08-30T00:19:07.657Z,96.70
2022-08-30T00:19:19.343Z,96.80
2022-08-30T00:19:31.053Z,96.80
2022-08-30T00:19:43.502Z,96.60
2022-08-30T00:19:55.963Z,96.60
2022-08-30T00:20:09.334Z,96.70
2022-08-30T00:20:23.301Z,96.60
2022-08-30T00:20:35.177Z,96.80
2022-08-30T00:20:48.246Z,96.90
2022-08-30T00:21:00.111Z,96.70
2022-08-30T00:21:12.110Z,96.60
2022-08-30T00:21:23.868Z,96.70
2022-08-30T00:21:35.644Z,96.90
2022-08-30T00:21:47.369Z,96.90
2022-08-30T00:21:59.379Z,96.90
2022-08-30T00:22:11.103Z,96.90
2022-08-30T00:22:23.025Z,97.10
2022-08-30T00:22:34.863Z,97.10
2022-08-30T00:22:46.777Z,96.90
2022-08-30T00:22:58.484Z,97.00
2022-08-30T00:23:10.223Z,97.10
2022-08-30T00:23:22.163Z,97.10
2022-08-30T00:23:34.009Z,97.20
2022-08-30T00:23:45.868Z,97.20
2022-08-30T00:23:57.596Z,97.10
2022-08-30T00:24:09.260Z,97.10
2022-08-30T00:24:21.091Z,97.10
2022-08-30T00:24:32.832Z,97.10
2022-08-30T00:24:44.705Z,97.30
2022-08-30T00:24:56.423Z,97.20
2022-08-30T00:25:08.696Z,97.20
2022-08-30T00:25:20.760Z,97.30
2022-08-30T00:25:32.503Z,97.30
2022-08-30T00:25:44.735Z,97.40
2022-08-30T00:25:56.438Z,97.50
2022-08-30T00:26:08.341Z,97.40
2022-08-30T00:26:20.071Z,97.30
2022-08-30T00:26:31.765Z,97.30
2022-08-30T00:26:43.593Z,97.40
2022-08-30T00:26:55.430Z,97.40
2022-08-30T00:27:07.132Z,97.40
2022-08-30T00:27:18.970Z,97.30
2022-08-30T00:27:30.700Z,97.30
2022-08-30T00:27:43.684Z,97.40
2022-08-30T00:27:55.553Z,97.50
2022-08-30T00:28:07.662Z,97.30
2022-08-30T00:28:19.831Z,97.50
2022-08-30T00:28:33.868Z,97.60
2022-08-30T00:28:45.735Z,97.60
2022-08-30T00:28:57.585Z,97.70
2022-08-30T00:29:09.272Z,97.60
2022-08-30T00:29:21.124Z,97.60
2022-08-30T00:29:32.840Z,97.70
2022-08-30T00:29:44.765Z,97.70
2022-08-30T00:29:56.904Z,97.70
2022-08-30T00:30:09.300Z,97.80
2022-08-30T00:30:21.104Z,97.80
2022-08-30T00:30:32.812Z,97.70
2022-08-30T00:30:44.751Z,97.70
2022-08-30T00:30:56.696Z,97.70
2022-08-30T00:31:08.649Z,97.60
2022-08-30T00:31:20.481Z,97.60
2022-08-30T00:31:32.281Z,97.70
2022-08-30T00:31:44.249Z,97.60
2022-08-30T00:31:56.089Z,97.80
2022-08-30T00:32:07.946Z,97.80
2022-08-30T00:32:21.369Z,97.80
2022-08-30T00:32:33.213Z,97.80
2022-08-30T00:32:45.062Z,97.70
2022-08-30T00:32:56.949Z,97.80
2022-08-30T00:33:09.032Z,97.80
2022-08-30T00:33:21.085Z,97.60
2022-08-30T00:33:32.945Z,97.70
2022-08-30T00:33:45.290Z,97.70
2022-08-30T00:33:57.005Z,97.80
2022-08-30T00:34:08.700Z,97.80
2022-08-30T00:34:20.550Z,97.80
2022-08-30T00:34:32.289Z,97.90
2022-08-30T00:34:44.021Z,98.00
2022-08-30T00:34:55.750Z,98.00
2022-08-30T00:35:09.229Z,97.80
2022-08-30T00:35:21.190Z,97.80
2022-08-30T00:35:33.139Z,97.80
2022-08-30T00:35:45.101Z,97.90
2022-08-30T00:35:56.953Z,97.90
2022-08-30T00:36:08.643Z,98.10
2022-08-30T00:36:21.337Z,98.20
2022-08-30T00:36:33.187Z,98.30
2022-08-30T00:36:45.130Z,98.20
2022-08-30T00:36:57.400Z,98.20
2022-08-30T00:37:09.236Z,98.20
2022-08-30T00:37:21.317Z,98.40
2022-08-30T00:37:33.081Z,98.30
2022-08-30T00:37:44.783Z,98.30
2022-08-30T00:37:56.548Z,98.10
2022-08-30T00:38:08.483Z,98.10
2022-08-30T00:38:20.342Z,98.30
2022-08-30T00:38:32.230Z,98.20
2022-08-30T00:38:43.940Z,98.10
2022-08-30T00:38:55.766Z,98.30
2022-08-30T00:39:07.628Z,98.30
2022-08-30T00:39:19.461Z,98.50
2022-08-30T00:39:31.209Z,98.40
2022-08-30T00:39:43.092Z,98.30
2022-08-30T00:39:54.792Z,98.20
2022-08-30T00:40:07.512Z,98.40
2022-08-30T00:40:20.462Z,98.40
2022-08-30T00:40:41.616Z,98.50
2022-08-30T00:40:53.548Z,98.50
2022-08-30T00:41:05.415Z,98.40
2022-08-30T00:41:17.707Z,98.40
2022-08-30T00:41:29.571Z,98.30
2022-08-30T00:41:41.469Z,98.30
2022-08-30T00:41:53.325Z,98.40
2022-08-30T00:42:05.296Z,98.60
2022-08-30T00:42:17.773Z,98.70
2022-08-30T00:42:29.441Z,98.70
2022-08-30T00:42:42.039Z,98.60
2022-08-30T00:42:58.081Z,98.60
2022-08-30T00:43:17.713Z,98.60
2022-08-30T00:43:32.053Z,98.80
2022-08-30T00:43:44.457Z,98.70
2022-08-30T00:43:56.441Z,98.70
2022-08-30T00:44:08.551Z,98.60
2022-08-30T00:44:20.229Z,98.70
2022-08-30T00:44:32.109Z,98.80
2022-08-30T00:44:44.126Z,98.80
2022-08-30T00:45:10.317Z,98.80
2022-08-30T00:45:34.025Z,98.80
2022-08-30T00:45:45.788Z,98.70
2022-08-30T00:45:57.820Z,98.80
2022-08-30T00:46:10.275Z,98.80
2022-08-30T00:46:22.194Z,98.90
2022-08-30T00:46:34.139Z,99.00
2022-08-30T00:46:45.867Z,99.00
2022-08-30T00:46:57.632Z,99.00
2022-08-30T00:47:09.461Z,98.90
2022-08-30T00:47:21.220Z,99.00
2022-08-30T00:47:33.073Z,99.20
2022-08-30T00:47:44.964Z,98.80
2022-08-30T00:47:56.673Z,98.80
2022-08-30T00:48:08.379Z,98.80
2022-08-30T00:48:20.250Z,98.90
2022-08-30T00:48:32.274Z,98.90
2022-08-30T00:48:45.327Z,98.90
2022-08-30T00:48:57.061Z,99.00
2022-08-30T00:49:09.425Z,99.10
2022-08-30T00:49:21.267Z,99.10
2022-08-30T00:49:33.921Z,99.10
2022-08-30T00:49:47.618Z,98.90
2022-08-30T00:49:59.293Z,99.00
2022-08-30T00:50:11.224Z,99.20
2022-08-30T00:50:25.060Z,99.10
2022-08-30T00:50:40.500Z,99.10
2022-08-30T00:50:54.620Z,99.10
2022-08-30T00:51:07.901Z,99.20
2022-08-30T00:51:20.285Z,99.30
2022-08-30T00:51:33.516Z,99.30
2022-08-30T00:51:45.208Z,99.20
2022-08-30T00:51:57.092Z,99.20
2022-08-30T00:52:09.145Z,99.20
2022-08-30T00:52:21.015Z,99.40
2022-08-30T00:52:32.716Z,99.40
2022-08-30T00:52:45.271Z,99.40
2022-08-30T00:52:59.245Z,99.30
2022-08-30T00:53:13.669Z,99.20
2022-08-30T00:53:29.130Z,99.20
2022-08-30T00:53:42.980Z,99.30
2022-08-30T00:53:55.429Z,99.20
2022-08-30T00:54:07.163Z,99.30
2022-08-30T00:54:19.085Z,99.30
2022-08-30T00:54:31.079Z,99.40
2022-08-30T00:54:44.581Z,99.40
2022-08-30T00:54:56.439Z,99.20
2022-08-30T00:55:08.537Z,99.20
2022-08-30T00:55:20.529Z,99.30
2022-08-30T00:55:33.361Z,99.40
2022-08-30T00:55:45.209Z,99.30
2022-08-30T00:55:57.052Z,99.30
2022-08-30T00:56:08.924Z,99.30
2022-08-30T00:56:21.168Z,99.50
2022-08-30T00:56:32.931Z,99.40
2022-08-30T00:56:45.892Z,99.50
2022-08-30T00:56:57.620Z,99.40
2022-08-30T00:57:10.584Z,99.40
2022-08-30T00:57:22.305Z,99.40
2022-08-30T00:57:35.867Z,99.60
2022-08-30T00:57:47.666Z,99.60
2022-08-30T00:58:02.428Z,99.60
2022-08-30T00:58:21.628Z,99.40
2022-08-30T00:58:37.343Z,99.50
2022-08-30T00:58:52.464Z,99.80
2022-08-30T00:59:04.531Z,99.50
2022-08-30T00:59:16.394Z,99.60
2022-08-30T00:59:29.133Z,99.50
2022-08-30T00:59:42.997Z,99.70
2022-08-30T00:59:54.852Z,99.70
2022-08-30T01:00:07.481Z,99.70
2022-08-30T01:00:19.338Z,99.60
2022-08-30T01:00:31.222Z,99.60
2022-08-30T01:00:43.222Z,99.60
2022-08-30T01:00:55.399Z,99.70
2022-08-30T01:01:07.319Z,99.70
2022-08-30T01:01:19.183Z,99.60
2022-08-30T01:01:34.285Z,99.60
2022-08-30T01:01:46.302Z,99.70
2022-08-30T01:01:58.231Z,99.50
2022-08-30T01:02:10.582Z,99.50
2022-08-30T01:02:22.598Z,99.60
2022-08-30T01:02:34.595Z,99.60
2022-08-30T01:02:46.412Z,99.70
2022-08-30T01:03:00.607Z,99.70
2022-08-30T01:03:12.467Z,99.70
2022-08-30T01:03:24.286Z,99.60
2022-08-30T01:03:36.152Z,99.50
2022-08-30T01:03:48.940Z,99.70
2022-08-30T01:04:00.672Z,99.60
2022-08-30T01:04:15.231Z,99.60
2022-08-30T01:04:27.127Z,99.60
2022-08-30T01:04:40.458Z,99.50
2022-08-30T01:04:52.216Z,99.60
2022-08-30T01:05:04.656Z,99.80
2022-08-30T01:05:16.443Z,99.70
2022-08-30T01:05:28.613Z,99.80
2022-08-30T01:05:40.359Z,99.70
2022-08-30T01:05:52.083Z,99.60
2022-08-30T01:06:04.636Z,99.50
2022-08-30T01:06:16.890Z,99.60
2022-08-30T01:06:32.600Z,99.50
2022-08-30T01:06:44.737Z,99.40
2022-08-30T01:06:56.449Z,99.60
2022-08-30T01:07:08.300Z,99.70
2022-08-30T01:07:20.245Z,99.60
2022-08-30T01:07:32.083Z,99.80
2022-08-30T01:07:43.923Z,99.60
2022-08-30T01:07:55.649Z,99.60
2022-08-30T01:08:07.506Z,99.70
2022-08-30T01:08:22.121Z,99.70
2022-08-30T01:08:33.957Z,99.80
2022-08-30T01:08:46.498Z,99.70
2022-08-30T01:08:58.289Z,99.70
2022-08-30T01:09:10.140Z,99.70
2022-08-30T01:09:22.009Z,99.60
2022-08-30T01:09:35.129Z,99.50
2022-08-30T01:09:47.104Z,99.60
2022-08-30T01:09:58.812Z,99.90
2022-08-30T01:10:11.724Z,99.60
2022-08-30T01:10:23.681Z,99.60
2022-08-30T01:10:35.803Z,99.50
2022-08-30T01:10:47.834Z,99.40
2022-08-30T01:10:59.710Z,99.70
2022-08-30T01:11:12.471Z,99.60
2022-08-30T01:11:24.483Z,99.60
2022-08-30T01:11:37.838Z,99.60
2022-08-30T01:11:49.541Z,99.50
2022-08-30T01:12:01.650Z,99.70
2022-08-30T01:12:13.552Z,99.70
2022-08-30T01:12:29.991Z,99.80
2022-08-30T01:12:41.926Z,99.80
2022-08-30T01:12:53.809Z,99.80
2022-08-30T01:13:05.677Z,99.80
2022-08-30T01:13:17.841Z,99.70
2022-08-30T01:13:29.824Z,99.90
2022-08-30T01:13:41.599Z,99.90
2022-08-30T01:13:53.633Z,99.80
2022-08-30T01:14:05.399Z,99.70
2022-08-30T01:14:17.364Z,99.60
2022-08-30T01:14:29.035Z,99.70
2022-08-30T01:14:40.750Z,99.80
2022-08-30T01:14:52.982Z,99.90
2022-08-30T01:15:05.647Z,99.80
2022-08-30T01:15:17.341Z,99.90
2022-08-30T01:15:32.584Z,99.90
2022-08-30T01:15:45.029Z,99.90
2022-08-30T01:16:00.159Z,99.90
2022-08-30T01:16:12.069Z,99.90
2022-08-30T01:16:25.421Z,99.90
2022-08-30T01:16:39.496Z,99.90
2022-08-30T01:16:51.632Z,99.90
2022-08-30T01:17:03.633Z,99.90
2022-08-30T01:17:16.475Z,99.90
2022-08-30T01:17:29.623Z,99.90
2022-08-30T01:17:44.504Z,99.90
2022-08-30T01:17:56.585Z,99.90
2022-08-30T01:18:10.085Z,99.90
2022-08-30T01:18:24.960Z,99.90
2022-08-30T01:18:37.263Z,99.90
2022-08-30T01:18:52.442Z,99.90
2022-08-30T01:19:04.249Z,99.90
2022-08-30T01:19:56.201Z,99.90
2022-08-30T01:20:10.819Z,99.90
2022-08-30T01:20:28.477Z,99.90
2022-08-30T01:21:17.619Z,99.90
2022-08-30T01:21:40.332Z,99.90
2022-08-30T01:21:54.799Z,99.90
2022-08-30T01:22:51.029Z,99.90
2022-08-30T01:23:05.345Z,99.90
2022-08-30T01:23:18.414Z,99.90
2022-08-30T01:23:30.253Z,99.90
2022-08-30T01:23:43.460Z,99.90
2022-08-30T01:23:56.952Z,99.90
2022-08-30T01:24:08.684Z,99.90
2022-08-30T01:24:20.523Z,99.90
2022-08-30T01:24:32.499Z,99.90
2022-08-30T01:24:47.895Z,99.90
2022-08-30T01:25:00.393Z,99.90
2022-08-30T01:25:12.883Z,99.90
2022-08-30T01:25:28.885Z,99.90
2022-08-30T01:25:42.373Z,99.90
2022-08-30T01:25:54.190Z,99.90
2022-08-30T01:26:06.034Z,99.90
2022-08-30T01:26:19.800Z,99.90
2022-08-30T01:26:33.825Z,99.90
2022-08-30T01:26:45.585Z,99.90
2022-08-30T01:26:57.460Z,99.90
2022-08-30T01:27:09.155Z,99.90
2022-08-30T01:27:21.301Z,99.90
2022-08-30T01:27:33.123Z,99.90
2022-08-30T01:27:48.720Z,99.90
2022-08-30T01:28:03.815Z,99.90
2022-08-30T01:28:21.403Z,99.90
2022-08-30T01:28:33.216Z,99.90
2022-08-30T01:28:48.678Z,99.90
2022-08-30T01:29:03.995Z,99.90
2022-08-30T01:29:19.059Z,99.90
2022-08-30T01:29:30.924Z,99.90
2022-08-30T01:29:44.959Z,99.90
2022-08-30T01:29:57.342Z,99.90
2022-08-30T01:30:10.008Z,99.90
2022-08-30T01:30:23.669Z,99.90
2022-08-30T01:30:35.724Z,99.90
2022-08-30T01:30:47.583Z,99.90
2022-08-30T01:30:59.732Z,99.90
2022-08-30T01:31:11.497Z,99.90
2022-08-30T01:31:23.580Z,99.90
2022-08-30T01:31:37.090Z,99.90
2022-08-30T01:31:49.724Z,99.90
2022-08-30T01:32:01.535Z,99.90
2022-08-30T01:32:20.997Z,99.90
2022-08-30T01:32:33.141Z,99.90
2022-08-30T01:32:46.350Z,99.90
2022-08-30T01:33:00.201Z,99.90
2022-08-30T01:33:12.217Z,99.90
2022-08-30T01:33:24.669Z,99.90
2022-08-30T01:33:38.187Z,99.90
2022-08-30T01:33:51.277Z,99.90
2022-08-30T01:34:05.166Z,99.90
2022-08-30T01:34:17.078Z,99.90
2022-08-30T01:34:28.870Z,99.90
2022-08-30T01:34:41.016Z,99.90
2022-08-30T01:34:52.755Z,99.90
2022-08-30T01:35:04.671Z,99.90
2022-08-30T01:35:18.087Z,99.90
2022-08-30T01:35:33.553Z,99.90
2022-08-30T01:35:56.363Z,99.90
2022-08-30T01:36:13.223Z,99.90
2022-08-30T01:36:25.100Z,99.90
2022-08-30T01:36:37.849Z,99.90
2022-08-30T01:36:56.478Z,99.90
2022-08-30T01:37:08.338Z,99.90
2022-08-30T01:37:22.508Z,99.90
2022-08-30T01:37:34.376Z,99.90
2022-08-30T01:37:46.065Z,99.90
2022-08-30T01:37:57.748Z,99.90
2022-08-30T01:38:09.643Z,99.90
2022-08-30T01:38:23.665Z,99.90
2022-08-30T01:38:39.105Z,99.90
2022-08-30T01:38:57.499Z,99.90
2022-08-30T01:39:09.930Z,99.90
2022-08-30T01:39:21.912Z,99.90
2022-08-30T01:39:33.601Z,99.90
2022-08-30T01:39:45.698Z,99.90
2022-08-30T01:39:57.680Z,99.90
2022-08-30T01:40:10.024Z,99.90
2022-08-30T01:40:22.132Z,99.90
2022-08-30T01:40:33.882Z,99.90
2022-08-30T01:40:45.766Z,99.90
2022-08-30T01:41:01.430Z,99.90
2022-08-30T01:41:16.847Z,99.90
2022-08-30T01:41:31.294Z,99.90
2022-08-30T01:41:43.613Z,99.90
2022-08-30T01:41:55.471Z,99.90
2022-08-30T01:42:07.444Z,99.90
2022-08-30T01:42:19.212Z,99.90
2022-08-30T01:42:30.904Z,99.90
2022-08-30T01:42:42.637Z,99.90
2022-08-30T01:42:54.644Z,99.90
2022-08-30T01:43:06.962Z,99.90
2022-08-30T01:43:19.125Z,99.90
2022-08-30T01:43:30.822Z,99.90
2022-08-30T01:43:42.689Z,99.90
2022-08-30T01:43:55.859Z,99.90
2022-08-30T01:44:10.368Z,99.90
2022-08-30T01:44:22.211Z,99.90
2022-08-30T01:44:34.083Z,99.90
2022-08-30T01:44:46.705Z,99.90
2022-08-30T01:44:58.396Z,99.90
2022-08-30T01:45:10.658Z,99.90
2022-08-30T01:45:22.574Z,99.90
2022-08-30T01:45:34.429Z,99.90
2022-08-30T01:45:46.434Z,99.90
2022-08-30T01:45:58.370Z,99.90
2022-08-30T01:46:11.913Z,99.90
2022-08-30T01:46:26.708Z,99.90
2022-08-30T01:46:42.223Z,99.90
2022-08-30T01:46:54.664Z,99.90
2022-08-30T01:47:06.617Z,99.90
2022-08-30T01:47:18.653Z,99.90
2022-08-30T01:47:30.393Z,99.90
2022-08-30T01:47:42.560Z,99.90
2022-08-30T01:47:54.260Z,99.90
2022-08-30T01:48:06.722Z,99.90
2022-08-30T01:48:18.554Z,99.90
2022-08-30T01:48:31.129Z,99.90
2022-08-30T01:48:50.209Z,99.90
2022-08-30T01:49:09.063Z,99.90
2022-08-30T01:49:27.553Z,99.90
2022-08-30T01:49:39.896Z,99.90
2022-08-30T01:49:51.639Z,99.90
2022-08-30T01:50:04.904Z,99.90
2022-08-30T01:50:16.851Z,99.90
2022-08-30T01:50:28.884Z,99.90
2022-08-30T01:50:41.139Z,99.90
2022-08-30T01:50:53.365Z,99.90
2022-08-30T01:51:05.712Z,99.90
2022-08-30T01:51:17.884Z,99.90
2022-08-30T01:51:29.705Z,99.90
2022-08-30T01:51:41.592Z,99.90
2022-08-30T01:52:00.961Z,99.90
2022-08-30T01:52:13.431Z,99.90
2022-08-30T01:52:25.726Z,99.90
2022-08-30T01:52:38.879Z,99.90
2022-08-30T01:52:50.556Z,99.90
2022-08-30T01:53:02.401Z,99.90
2022-08-30T01:53:14.150Z,99.90
2022-08-30T01:53:26.334Z,99.90
2022-08-30T01:53:40.007Z,99.90
2022-08-30T01:53:51.845Z,99.90
2022-08-30T01:54:04.080Z,99.90
2022-08-30T01:54:16.024Z,99.90
2022-08-30T01:54:28.065Z,99.90
2022-08-30T01:54:48.481Z,99.90
2022-08-30T01:55:00.301Z,99.90
2022-08-30T01:55:12.012Z,99.90
2022-08-30T01:55:24.024Z,99.90
2022-08-30T01:55:36.981Z,99.90
2022-08-30T01:55:48.683Z,99.90
2022-08-30T01:56:00.586Z,99.90
2022-08-30T01:56:12.882Z,99.90
2022-08-30T01:56:25.356Z,99.90
2022-08-30T01:56:37.101Z,99.90
2022-08-30T01:56:48.958Z,99.90
2022-08-30T01:57:00.658Z,99.90
2022-08-30T01:57:15.047Z,99.90
2022-08-30T01:57:29.716Z,99.90
2022-08-30T01:57:41.744Z,99.90
2022-08-30T01:57:53.573Z,99.90
2022-08-30T01:58:05.416Z,99.90
2022-08-30T01:58:17.180Z,99.90
2022-08-30T01:58:29.011Z,99.90
2022-08-30T01:58:40.714Z,99.90
2022-08-30T01:58:52.508Z,99.90
2022-08-30T01:59:04.370Z,99.90
2022-08-30T01:59:16.253Z,99.90
2022-08-30T01:59:28.060Z,99.90
2022-08-30T01:59:40.512Z,99.90
2022-08-30T01:59:52.851Z,99.90
2022-08-30T02:00:08.351Z,99.90
2022-08-30T02:00:20.061Z,99.90
2022-08-30T02:00:32.343Z,99.90
2022-08-30T02:00:44.228Z,99.90
2022-08-30T02:00:56.353Z,99.90
2022-08-30T02:01:09.631Z,99.90
2022-08-30T02:01:23.667Z,99.90
2022-08-30T02:01:36.988Z,99.90
2022-08-30T02:01:48.966Z,99.90
2022-08-30T02:02:00.632Z,99.90
2022-08-30T02:02:12.468Z,99.90
2022-08-30T02:02:26.044Z,99.90
2022-08-30T02:02:37.740Z,99.90
2022-08-30T02:02:49.465Z,99.90
2022-08-30T02:03:01.150Z,99.90
2022-08-30T02:03:12.861Z,99.90
2022-08-30T02:03:26.395Z,99.90
2022-08-30T02:03:39.272Z,99.90
2022-08-30T02:03:51.255Z,99.90
2022-08-30T02:04:03.824Z,99.90
2022-08-30T02:04:15.584Z,99.90
2022-08-30T02:04:27.280Z,99.90
2022-08-30T02:04:39.124Z,99.90
2022-08-30T02:04:51.950Z,99.90
2022-08-30T02:05:03.987Z,99.90
2022-08-30T02:05:16.292Z,99.90
2022-08-30T02:05:28.153Z,99.90
2022-08-30T02:05:39.828Z,99.90
2022-08-30T02:05:51.850Z,99.90
2022-08-30T02:06:07.656Z,99.90
2022-08-30T02:06:19.779Z,99.90
2022-08-30T02:06:31.625Z,99.90
2022-08-30T02:06:44.493Z,99.90
2022-08-30T02:06:56.447Z,99.90
2022-08-30T02:07:08.298Z,99.90
2022-08-30T02:07:21.037Z,99.90
2022-08-30T02:07:32.873Z,99.90
2022-08-30T02:07:44.576Z,99.90
2022-08-30T02:07:56.573Z,99.90
2022-08-30T02:08:08.405Z,99.90
2022-08-30T02:08:20.115Z,99.90
2022-08-30T02:08:31.912Z,99.90
2022-08-30T02:08:46.449Z,99.90
2022-08-30T02:08:58.634Z,99.90
2022-08-30T02:09:11.634Z,99.90
2022-08-30T02:09:23.521Z,99.90
2022-08-30T02:09:35.246Z,99.90
2022-08-30T02:09:47.144Z,99.90
2022-08-30T02:09:59.076Z,99.90
2022-08-30T02:10:10.932Z,99.90
2022-08-30T02:10:22.910Z,99.90
2022-08-30T02:10:34.771Z,99.90
2022-08-30T02:10:46.460Z,99.90
2022-08-30T02:11:00.183Z,99.90
2022-08-30T02:11:12.268Z,99.90
2022-08-30T02:11:23.965Z,99.90
2022-08-30T02:11:35.952Z,99.90
2022-08-30T02:11:48.428Z,99.90
2022-08-30T02:12:00.289Z,99.90
2022-08-30T02:12:12.119Z,99.90
2022-08-30T02:12:23.851Z,99.90
2022-08-30T02:12:35.700Z,99.90
2022-08-30T02:12:47.744Z,99.90
2022-08-30T02:12:59.494Z,99.90
2022-08-30T02:13:11.377Z,99.90
2022-08-30T02:13:23.687Z,99.90
2022-08-30T02:13:37.362Z,99.90
2022-08-30T02:13:49.293Z,99.90
2022-08-30T02:14:00.995Z,99.90
2022-08-30T02:14:12.821Z,99.90
2022-08-30T02:14:24.495Z,99.90
2022-08-30T02:14:37.027Z,99.90
2022-08-30T02:14:48.900Z,99.90
2022-08-30T02:15:00.891Z,99.90
2022-08-30T02:15:13.420Z,99.90
2022-08-30T02:15:25.900Z,99.90
2022-08-30T02:15:41.390Z,99.90
2022-08-30T02:15:56.640Z,99.90
2022-08-30T02:16:09.400Z,99.90
2022-08-30T02:16:24.942Z,99.90
2022-08-30T02:16:36.719Z,99.90
2022-08-30T02:16:48.787Z,99.90
2022-08-30T02:17:02.688Z,99.90
2022-08-30T02:17:14.744Z,99.90
2022-08-30T02:17:26.713Z,99.90
2022-08-30T02:17:38.580Z,99.90
2022-08-30T02:17:50.440Z,99.90
2022-08-30T02:18:02.336Z,99.90
2022-08-30T02:18:14.014Z,99.90
2022-08-30T02:18:26.071Z,99.90
2022-08-30T02:18:39.352Z,99.90
2022-08-30T02:18:52.255Z,99.90
2022-08-30T02:19:03.938Z,99.90
2022-08-30T02:19:15.805Z,99.90
2022-08-30T02:19:27.659Z,99.90
2022-08-30T02:19:39.520Z,99.90
2022-08-30T02:19:51.275Z,99.90
2022-08-30T02:20:03.369Z,99.90
2022-08-30T02:20:15.233Z,99.90
2022-08-30T02:20:27.028Z,99.90
2022-08-30T02:20:39.954Z,99.90
2022-08-30T02:20:51.828Z,99.90
2022-08-30T02:21:03.765Z,99.90
2022-08-30T02:21:15.644Z,99.90
2022-08-30T02:21:30.155Z,99.90
2022-08-30T02:21:42.998Z,99.90
2022-08-30T02:21:54.843Z,99.90
2022-08-30T02:22:06.980Z,99.90
2022-08-30T02:22:20.849Z,99.90
2022-08-30T02:22:32.811Z,99.90
2022-08-30T02:22:49.389Z,99.90
2022-08-30T02:23:01.662Z,99.90
2022-08-30T02:23:13.477Z,99.90
2022-08-30T02:23:25.457Z,99.90
2022-08-30T02:23:37.150Z,99.90
2022-08-30T02:23:48.941Z,99.90
2022-08-30T02:24:00.649Z,99.90
2022-08-30T02:24:12.675Z,99.90
2022-08-30T02:24:24.379Z,99.90
2022-08-30T02:24:36.091Z,99.90
2022-08-30T02:24:47.989Z,99.90
2022-08-30T02:24:59.733Z,99.90
2022-08-30T02:25:20.698Z,99.90
2022-08-30T02:25:32.729Z,99.90
2022-08-30T02:25:44.764Z,99.90
2022-08-30T02:25:56.781Z,99.90
2022-08-30T02:26:08.949Z,99.90
2022-08-30T02:26:21.636Z,99.90
2022-08-30T02:26:33.489Z,99.90
2022-08-30T02:26:45.422Z,99.90
2022-08-30T02:26:57.179Z,99.90
2022-08-30T02:27:09.027Z,99.90
2022-08-30T02:27:20.882Z,99.90
2022-08-30T02:27:32.694Z,99.90
2022-08-30T02:27:44.545Z,99.90
2022-08-30T02:27:56.392Z,99.90
2022-08-30T02:28:08.602Z,99.90
2022-08-30T02:28:20.544Z,99.90
2022-08-30T02:28:32.236Z,99.90
2022-08-30T02:28:50.044Z,99.90
2022-08-30T02:29:02.583Z,99.90
2022-08-30T02:29:14.301Z,99.90
2022-08-30T02:29:26.179Z,99.90
2022-08-30T02:29:38.013Z,99.90
2022-08-30T02:29:49.939Z,99.90
2022-08-30T02:30:01.857Z,99.90
2022-08-30T02:30:13.952Z,99.90
2022-08-30T02:30:26.172Z,99.90
2022-08-30T02:30:38.198Z,99.90
2022-08-30T02:30:49.980Z,99.90
2022-08-30T02:31:01.811Z,99.90
2022-08-30T02:31:13.757Z,99.90
2022-08-30T02:31:25.679Z,99.90
2022-08-30T02:31:37.549Z,99.90
2022-08-30T02:31:49.227Z,99.90
2022-08-30T02:32:00.962Z,99.90
2022-08-30T02:32:12.790Z,99.90
2022-08-30T02:32:24.626Z,99.90
2022-08-30T02:32:36.472Z,99.90
2022-08-30T02:32:48.364Z,99.90
2022-08-30T02:33:00.419Z,99.90
2022-08-30T02:33:12.330Z,99.90
2022-08-30T02:33:24.145Z,99.90
2022-08-30T02:33:36.730Z,99.90
2022-08-30T02:33:53.097Z,99.90
2022-08-30T02:34:07.280Z,99.90
2022-08-30T02:34:20.015Z,99.90
2022-08-30T02:34:31.733Z,99.90
2022-08-30T02:34:44.685Z,99.90
2022-08-30T02:34:56.394Z,99.90
2022-08-30T02:35:08.728Z,99.90
2022-08-30T02:35:20.407Z,99.90
2022-08-30T02:35:32.130Z,99.90
2022-08-30T02:35:43.886Z,99.90
2022-08-30T02:35:56.369Z,99.90
2022-08-30T02:36:08.464Z,99.90
2022-08-30T02:36:20.930Z,99.90
2022-08-30T02:36:32.661Z,99.90
2022-08-30T02:36:44.812Z,99.90
2022-08-30T02:36:56.566Z,99.90
2022-08-30T02:37:09.201Z,99.90
2022-08-30T02:37:21.194Z,99.90
2022-08-30T02:37:32.895Z,99.90
2022-08-30T02:37:44.575Z,99.90
2022-08-30T02:37:56.292Z,99.90
2022-08-30T02:38:08.001Z,99.90
2022-08-30T02:38:20.207Z,99.90
2022-08-30T02:38:32.201Z,99.90
2022-08-30T02:38:44.137Z,99.90
2022-08-30T02:38:55.927Z,99.90
2022-08-30T02:39:09.032Z,99.90
2022-08-30T02:39:20.770Z,99.90
2022-08-30T02:39:32.660Z,99.90
2022-08-30T02:39:44.569Z,99.90
2022-08-30T02:39:56.567Z,99.90
2022-08-30T02:40:10.009Z,99.90
2022-08-30T02:40:22.456Z,99.90
2022-08-30T02:40:34.347Z,99.90
2022-08-30T02:40:46.183Z,99.90
2022-08-30T02:40:57.976Z,99.90
2022-08-30T02:41:09.655Z,99.90
2022-08-30T02:41:23.331Z,99.90
2022-08-30T02:41:35.113Z,99.90
2022-08-30T02:41:46.809Z,99.90
2022-08-30T02:41:59.977Z,99.90
2022-08-30T02:42:11.673Z,99.90
2022-08-30T02:42:23.523Z,99.90
2022-08-30T02:42:35.219Z,99.90
2022-08-30T02:42:46.907Z,99.90
2022-08-30T02:42:58.639Z,99.90
2022-08-30T02:43:10.989Z,99.90
2022-08-30T02:43:22.788Z,99.90
2022-08-30T02:43:34.493Z,99.90
2022-08-30T02:43:46.551Z,99.90
2022-08-30T02:44:00.433Z,99.90
2022-08-30T02:44:12.377Z,99.90